createdAt,value
2023-01-21T00:03:25.081Z,2.97
2023-01-21T00:08:30.284Z,3.20
2023-01-21T00:13:35.147Z,3.40
2023-01-21T00:18:38.626Z,3.63
2023-01-21T00:23:45.951Z,3.47
2023-01-21T00:28:49.445Z,3.57
2023-01-21T00:33:53.055Z,2.70
2023-01-21T00:38:58.046Z,3.10
2023-01-21T00:44:01.570Z,2.93
2023-01-21T00:49:05.281Z,3.30
2023-01-21T00:54:10.321Z,3.40
2023-01-21T00:59:13.824Z,3.47
2023-01-21T01:04:17.454Z,3.33
2023-01-21T01:09:22.277Z,3.07
2023-01-21T01:14:25.741Z,3.17
2023-01-21T01:19:29.634Z,2.40
2023-01-21T01:24:34.412Z,2.70
2023-01-21T01:29:37.900Z,2.70
2023-01-21T01:34:41.313Z,2.67
2023-01-21T01:39:46.123Z,2.33
2023-01-21T01:44:57.736Z,2.50
2023-01-21T01:50:03.107Z,2.37
2023-01-21T01:55:09.724Z,2.67
2023-01-21T02:00:14.627Z,2.70
2023-01-21T02:05:18.234Z,2.43
2023-01-21T02:10:23.220Z,2.67
2023-01-21T02:15:34.657Z,2.03
2023-01-21T02:21:23.443Z,2.67
2023-01-21T02:27:14.790Z,2.60
2023-01-21T02:32:57.169Z,2.27
2023-01-21T02:38:08.050Z,2.40
2023-01-21T02:43:19.479Z,2.40
2023-01-21T02:48:33.623Z,2.57
2023-01-21T02:53:38.084Z,2.50
2023-01-21T02:58:45.144Z,2.07
2023-01-21T03:04:25.019Z,2.60
2023-01-21T03:09:30.277Z,2.67
2023-01-21T03:14:56.485Z,2.90
2023-01-21T03:20:07.253Z,2.67
2023-01-21T03:25:13.182Z,2.43
2023-01-21T03:30:19.510Z,2.27
2023-01-21T03:35:34.474Z,1.97
2023-01-21T03:40:41.965Z,2.50
2023-01-21T03:45:51.592Z,2.57
2023-01-21T03:51:01.154Z,2.20
2023-01-21T03:56:05.315Z,2.17
2023-01-21T04:01:09.463Z,2.67
2023-01-21T04:06:16.057Z,2.40
2023-01-21T04:11:22.246Z,2.30
2023-01-21T04:16:25.839Z,2.73
2023-01-21T04:21:30.991Z,2.50
2023-01-21T04:26:34.515Z,2.17
2023-01-21T04:31:37.963Z,2.30
2023-01-21T04:36:43.234Z,2.53
2023-01-21T04:41:47.110Z,2.63
2023-01-21T04:46:50.801Z,2.10
2023-01-21T04:51:55.574Z,2.53
2023-01-21T04:56:59.303Z,2.50
2023-01-21T05:02:02.769Z,3.03
2023-01-21T05:07:07.671Z,2.33
2023-01-21T05:12:11.906Z,3.37
2023-01-21T05:17:15.416Z,2.40
2023-01-21T05:22:20.580Z,2.60
2023-01-21T05:27:24.130Z,2.70
2023-01-21T05:32:27.614Z,2.40
2023-01-21T05:37:32.751Z,2.20
2023-01-21T05:42:36.137Z,2.63
2023-01-21T05:47:39.691Z,2.13
2023-01-21T05:52:44.658Z,2.43
2023-01-21T05:57:48.096Z,2.50
2023-01-21T06:02:52.186Z,2.13
2023-01-21T06:07:57.489Z,2.60
2023-01-21T06:13:01.040Z,2.43
2023-01-21T06:18:04.721Z,2.37
2023-01-21T06:23:09.625Z,1.80
2023-01-21T06:28:13.533Z,2.23
2023-01-21T06:33:16.926Z,1.80
2023-01-21T06:38:22.344Z,2.37
2023-01-21T06:43:26.049Z,2.10
2023-01-21T06:48:29.522Z,2.30
2023-01-21T06:53:34.354Z,2.37
2023-01-21T06:58:37.949Z,2.20
2023-01-21T07:03:44.634Z,1.93
2023-01-21T07:08:49.617Z,2.03
2023-01-21T07:13:53.110Z,2.50
2023-01-21T07:18:56.577Z,2.10
2023-01-21T07:24:01.493Z,1.70
2023-01-21T07:29:06.189Z,1.97
2023-01-21T07:34:09.650Z,1.57
2023-01-21T07:39:14.424Z,1.80
2023-01-21T07:44:17.735Z,2.20
2023-01-21T07:49:21.332Z,1.93
2023-01-21T07:54:26.370Z,1.73
2023-01-21T07:59:30.039Z,1.80
2023-01-21T08:04:33.456Z,1.63
2023-01-21T08:09:39.686Z,1.90
2023-01-21T08:14:44.172Z,1.47
2023-01-21T08:19:47.692Z,1.80
2023-01-21T08:25:05.972Z,2.00
2023-01-21T08:30:10.810Z,1.57
2023-01-21T08:35:14.400Z,2.00
2023-01-21T08:40:19.569Z,2.60
2023-01-21T08:45:23.128Z,1.73
2023-01-21T08:50:26.597Z,1.73
2023-01-21T08:55:31.374Z,2.00
2023-01-21T09:00:34.805Z,1.77
2023-01-21T09:05:38.237Z,2.10
2023-01-21T09:11:11.983Z,1.67
2023-01-21T09:16:17.205Z,1.60
2023-01-21T09:21:20.694Z,1.60
2023-01-21T09:26:26.167Z,1.70
2023-01-21T09:31:31.373Z,2.10
2023-01-21T09:36:36.143Z,1.50
2023-01-21T09:41:46.079Z,1.50
2023-01-21T09:46:57.307Z,1.43
2023-01-21T09:52:10.284Z,2.10
2023-01-21T09:57:42.528Z,1.60
2023-01-21T10:02:55.001Z,1.50
2023-01-21T10:08:07.794Z,1.50
2023-01-21T10:13:42.261Z,1.70
2023-01-21T10:18:48.636Z,1.37
2023-01-21T10:23:57.506Z,1.60
2023-01-21T10:29:03.197Z,1.43
2023-01-21T10:34:13.105Z,1.40
2023-01-21T10:39:32.626Z,1.67
2023-01-21T10:44:44.639Z,1.83
2023-01-21T10:49:58.302Z,1.33
2023-01-21T10:55:08.568Z,1.43
2023-01-21T11:00:21.768Z,1.40
2023-01-21T11:05:27.384Z,1.30
2023-01-21T11:10:31.562Z,1.63
2023-01-21T11:15:37.441Z,1.40
2023-01-21T11:20:42.429Z,1.40
2023-01-21T11:25:45.921Z,1.20
2023-01-21T11:30:51.885Z,1.20
2023-01-21T11:35:58.435Z,1.40
2023-01-21T11:41:10.770Z,1.30
2023-01-21T11:46:32.536Z,1.50
2023-01-21T11:51:36.547Z,2.00
2023-01-21T11:56:40.756Z,1.77
2023-01-21T12:01:52.661Z,1.73
2023-01-21T12:07:00.543Z,1.63
2023-01-21T12:12:26.483Z,1.93
2023-01-21T12:17:50.915Z,1.60
2023-01-21T12:23:14.385Z,1.60
2023-01-21T12:28:36.306Z,1.40
2023-01-21T12:33:49.321Z,1.73
2023-01-21T12:38:58.722Z,1.80
2023-01-21T12:44:21.358Z,1.50
2023-01-21T12:49:30.594Z,1.77
2023-01-21T12:54:44.950Z,1.80
2023-01-21T12:59:52.228Z,1.63
2023-01-21T13:05:02.163Z,1.50
2023-01-21T13:10:20.560Z,2.07
2023-01-21T13:15:29.439Z,1.63
2023-01-21T13:20:38.919Z,1.93
2023-01-21T13:25:48.741Z,1.70
2023-01-21T13:30:57.310Z,1.50
2023-01-21T13:36:14.290Z,1.90
2023-01-21T13:41:38.743Z,1.40
2023-01-21T13:46:55.340Z,1.60
2023-01-21T13:52:08.782Z,1.40
2023-01-21T13:57:28.289Z,1.57
2023-01-21T14:02:38.834Z,1.80
2023-01-21T14:08:24.679Z,2.30
2023-01-21T14:14:04.353Z,1.57
2023-01-21T14:19:35.957Z,2.20
2023-01-21T14:25:04.024Z,1.73
2023-01-21T14:30:13.364Z,1.43
2023-01-21T14:35:23.953Z,2.13
2023-01-21T14:40:35.637Z,1.93
2023-01-21T14:45:57.230Z,1.77
2023-01-21T14:51:13.584Z,1.80
2023-01-21T14:56:26.873Z,2.10
2023-01-21T15:01:40.257Z,1.67
2023-01-21T15:06:45.133Z,1.53
2023-01-21T15:11:53.839Z,1.80
2023-01-21T15:16:57.760Z,2.07
2023-01-21T15:22:05.352Z,1.90
2023-01-21T15:27:18.813Z,2.17
2023-01-21T15:32:33.457Z,1.83
2023-01-21T15:37:40.464Z,1.80
2023-01-21T15:42:55.761Z,1.70
2023-01-21T15:48:30.122Z,2.30
2023-01-21T15:53:53.080Z,2.00
2023-01-21T15:59:09.957Z,2.17
2023-01-21T16:04:26.605Z,1.77
2023-01-21T16:09:38.872Z,1.77
2023-01-21T16:14:56.062Z,1.97
2023-01-21T16:20:01.832Z,2.30
2023-01-21T16:25:10.201Z,2.30
2023-01-21T16:30:22.773Z,2.40
2023-01-21T16:35:26.860Z,2.07
2023-01-21T16:40:31.297Z,2.27
2023-01-21T16:45:36.539Z,1.90
2023-01-21T16:50:47.892Z,2.30
2023-01-21T16:55:54.034Z,2.23
2023-01-21T17:01:07.060Z,2.23
2023-01-21T17:06:16.097Z,2.53
2023-01-21T17:11:20.601Z,2.47
2023-01-21T17:16:32.364Z,2.33
2023-01-21T17:21:39.678Z,2.13
2023-01-21T17:26:52.836Z,2.27
2023-01-21T17:32:03.236Z,2.50
2023-01-21T17:37:45.248Z,2.40
2023-01-21T17:42:51.837Z,2.50
2023-01-21T17:48:14.867Z,2.20
2023-01-21T17:53:24.910Z,2.37
2023-01-21T17:58:47.256Z,2.20
2023-01-21T18:03:53.269Z,2.70
2023-01-21T18:08:59.067Z,3.00
2023-01-21T18:14:02.874Z,2.60
2023-01-21T18:19:11.221Z,2.80
2023-01-21T18:24:15.019Z,3.00
2023-01-21T18:29:19.894Z,2.83
2023-01-21T18:34:25.711Z,3.00
2023-01-21T18:39:30.967Z,2.50
2023-01-21T18:44:35.188Z,2.77
2023-01-21T18:49:40.840Z,3.03
2023-01-21T18:54:46.003Z,2.33
2023-01-21T18:59:54.078Z,3.27
2023-01-21T19:05:00.049Z,2.57
2023-01-21T19:10:05.004Z,3.50
2023-01-21T19:15:15.117Z,2.53
2023-01-21T19:20:22.450Z,3.10
2023-01-21T19:25:28.845Z,3.73
2023-01-21T19:30:35.296Z,3.47
2023-01-21T19:35:48.062Z,3.70
2023-01-21T19:40:52.596Z,3.20
2023-01-21T19:46:00.692Z,3.40
2023-01-21T19:51:06.968Z,3.13
2023-01-21T19:56:19.888Z,3.33
2023-01-21T20:01:26.747Z,3.03
2023-01-21T20:06:46.892Z,3.43
2023-01-21T20:11:52.501Z,3.97
2023-01-21T20:16:57.500Z,3.40
2023-01-21T20:22:04.271Z,3.27
2023-01-21T20:27:10.854Z,3.23
2023-01-21T20:32:15.732Z,3.20
2023-01-21T20:37:22.393Z,3.53
2023-01-21T20:42:28.103Z,3.50
2023-01-21T20:47:38.751Z,2.57
2023-01-21T20:52:52.169Z,3.30
2023-01-21T20:57:56.887Z,2.73
2023-01-21T21:03:02.156Z,2.43
2023-01-21T21:08:08.998Z,2.27
2023-01-21T21:13:14.761Z,2.50
2023-01-21T21:18:18.486Z,2.73
2023-01-21T21:23:24.452Z,2.43
2023-01-21T21:28:28.297Z,2.17
2023-01-21T21:33:32.326Z,2.63
2023-01-21T21:38:37.185Z,2.70
2023-01-21T21:43:41.614Z,2.30
2023-01-21T21:48:46.747Z,2.07
2023-01-21T21:53:53.032Z,2.37
2023-01-21T21:58:57.001Z,3.13
2023-01-21T22:04:01.588Z,2.43
2023-01-21T22:09:07.156Z,2.40
2023-01-21T22:14:10.584Z,1.97
2023-01-21T22:19:14.297Z,2.17
2023-01-21T22:24:19.243Z,2.20
2023-01-21T22:29:22.603Z,2.40
2023-01-21T22:34:25.924Z,2.30
2023-01-21T22:39:31.333Z,2.20
2023-01-21T22:44:34.660Z,2.70
2023-01-21T22:49:38.101Z,2.97
2023-01-21T22:54:43.227Z,2.60
2023-01-21T22:59:47.749Z,2.20
2023-01-21T23:04:51.397Z,2.20
2023-01-21T23:09:56.492Z,2.47
2023-01-21T23:14:59.823Z,2.57
2023-01-21T23:20:04.494Z,3.10
2023-01-21T23:25:10.532Z,2.87
2023-01-21T23:30:15.201Z,2.87
2023-01-21T23:35:19.440Z,3.70
2023-01-21T23:40:24.245Z,3.10
2023-01-21T23:45:27.833Z,3.30
2023-01-21T23:50:31.315Z,3.67
2023-01-21T23:55:36.052Z,3.40
